createdAt,value
2022-10-24T00:01:00.092Z,90.3
2022-10-24T00:02:03.181Z,90.5
2022-10-24T00:03:06.245Z,90.5
2022-10-24T00:04:09.623Z,90.5
2022-10-24T00:05:12.419Z,90.7
2022-10-24T00:06:16.137Z,90.9
2022-10-24T00:07:19.301Z,91
2022-10-24T00:08:22.030Z,91
2022-10-24T00:09:24.807Z,91.2
2022-10-24T00:10:27.578Z,91.1
2022-10-24T00:11:30.729Z,91.2
2022-10-24T00:12:33.796Z,91.3
2022-10-24T00:13:36.523Z,91.3
2022-10-24T00:14:40.192Z,91.3
2022-10-24T00:15:44.072Z,91.3
2022-10-24T00:16:46.783Z,91.4
2022-10-24T00:17:50.327Z,91.6
2022-10-24T00:18:52.845Z,91.7
2022-10-24T00:19:55.630Z,91.7
2022-10-24T00:20:58.149Z,91.7
2022-10-24T00:22:00.389Z,91.7
2022-10-24T00:23:03.194Z,91.9
2022-10-24T00:24:06.266Z,91.9
2022-10-24T00:25:08.891Z,91.8
2022-10-24T00:26:10.850Z,91.9
2022-10-24T00:27:13.173Z,91.9
2022-10-24T00:28:16.350Z,92
2022-10-24T00:29:20.154Z,92
2022-10-24T00:30:23.000Z,92
2022-10-24T00:31:26.139Z,92.1
2022-10-24T00:32:29.212Z,92
2022-10-24T00:33:32.308Z,92
2022-10-24T00:34:36.117Z,92
2022-10-24T00:35:39.469Z,92
2022-10-24T00:36:42.546Z,92.1
2022-10-24T00:37:46.674Z,92.2
2022-10-24T00:38:50.185Z,92.3
2022-10-24T00:39:52.572Z,92.2
2022-10-24T00:40:55.642Z,92.1
2022-10-24T00:41:58.353Z,92
2022-10-24T00:43:02.014Z,92.1
2022-10-24T00:44:05.312Z,92.2
2022-10-24T00:45:07.769Z,92.1
2022-10-24T00:46:11.174Z,92.1
2022-10-24T00:47:15.290Z,92.1
2022-10-24T00:48:18.357Z,92
2022-10-24T00:49:21.028Z,92.1
2022-10-24T00:50:23.697Z,92.1
2022-10-24T00:51:26.497Z,92
2022-10-24T00:52:29.718Z,92
2022-10-24T00:53:32.266Z,92
2022-10-24T00:54:35.256Z,92.1
2022-10-24T00:55:37.691Z,92.1
2022-10-24T00:56:40.401Z,92.1
2022-10-24T00:57:44.840Z,92.1
2022-10-24T00:58:48.979Z,92
2022-10-24T00:59:52.075Z,91.9
2022-10-24T01:00:55.540Z,92
2022-10-24T01:01:59.119Z,92
2022-10-24T01:03:02.322Z,92
2022-10-24T01:04:05.691Z,92
2022-10-24T01:05:08.781Z,91.9
2022-10-24T01:06:11.766Z,91.9
2022-10-24T01:07:15.216Z,91.8
2022-10-24T01:08:18.587Z,92
2022-10-24T01:09:22.285Z,92
2022-10-24T01:10:25.439Z,92.1
2022-10-24T01:11:28.794Z,92
2022-10-24T01:12:31.502Z,92
2022-10-24T01:13:34.305Z,91.9
2022-10-24T01:14:36.819Z,91.9
2022-10-24T01:15:39.805Z,91.9
2022-10-24T01:16:42.689Z,91.9
2022-10-24T01:17:45.531Z,91.9
2022-10-24T01:18:49.093Z,91.9
2022-10-24T01:19:52.331Z,91.9
2022-10-24T01:20:55.417Z,91.8
2022-10-24T01:21:58.263Z,91.7
2022-10-24T01:23:01.333Z,91.7
2022-10-24T01:24:04.208Z,91.8
2022-10-24T01:25:07.353Z,92
2022-10-24T01:26:10.139Z,92.1
2022-10-24T01:27:12.709Z,92
2022-10-24T01:28:17.144Z,92.1
2022-10-24T01:29:20.613Z,92.2
2022-10-24T01:30:23.791Z,92.2
2022-10-24T01:31:27.236Z,92.1
2022-10-24T01:32:29.398Z,92.2
2022-10-24T01:33:32.774Z,92.2
2022-10-24T01:34:36.441Z,92.2
2022-10-24T01:35:39.017Z,92.2
2022-10-24T01:36:42.128Z,92.2
2022-10-24T01:37:46.798Z,92.2
2022-10-24T01:38:50.611Z,92.2
2022-10-24T01:39:53.398Z,92.2
2022-10-24T01:40:56.571Z,92.2
2022-10-24T01:42:00.451Z,92.2
2022-10-24T01:43:03.257Z,92.1
2022-10-24T01:44:06.381Z,92.3
2022-10-24T01:45:09.721Z,92.3
2022-10-24T01:46:12.486Z,92.3
2022-10-24T01:47:15.855Z,92.4
2022-10-24T01:48:19.945Z,92.4
2022-10-24T01:49:23.714Z,92.4
2022-10-24T01:50:27.822Z,92.3
2022-10-24T01:51:30.961Z,92.3
2022-10-24T01:52:34.117Z,92.3
2022-10-24T01:53:36.544Z,92.2
2022-10-24T01:54:40.268Z,92.2
2022-10-24T01:55:43.327Z,92.2
2022-10-24T01:56:46.127Z,92.3
2022-10-24T01:57:49.192Z,92.4
2022-10-24T01:58:52.612Z,92.4
2022-10-24T01:59:55.310Z,92.4
2022-10-24T02:00:57.856Z,92.5
2022-10-24T02:02:00.731Z,92.4
2022-10-24T02:03:03.515Z,92.5
2022-10-24T02:04:07.537Z,92.5
2022-10-24T02:05:11.033Z,92.6
2022-10-24T02:06:14.720Z,92.5
2022-10-24T02:07:17.507Z,92.5
2022-10-24T02:08:20.986Z,92.5
2022-10-24T02:09:23.581Z,92.5
2022-10-24T02:10:26.652Z,92.6
2022-10-24T02:11:29.086Z,92.5
2022-10-24T02:12:31.517Z,92.5
2022-10-24T02:13:34.279Z,92.4
2022-10-24T02:14:37.424Z,92.4
2022-10-24T02:15:40.212Z,92.4
2022-10-24T02:16:43.547Z,92.4
2022-10-24T02:17:48.067Z,92.4
2022-10-24T02:18:51.454Z,92.4
2022-10-24T02:19:54.526Z,92.4
2022-10-24T02:20:57.987Z,92.4
2022-10-24T02:22:01.761Z,92.4
2022-10-24T02:23:05.102Z,92.5
2022-10-24T02:24:07.994Z,92.4
2022-10-24T02:25:11.377Z,92.4
2022-10-24T02:26:14.817Z,92.4
2022-10-24T02:27:17.530Z,92.4
2022-10-24T02:28:20.529Z,92.3
2022-10-24T02:29:23.774Z,92.3
2022-10-24T02:30:26.632Z,92.3
2022-10-24T02:31:29.498Z,92.3
2022-10-24T02:32:32.384Z,92.3
2022-10-24T02:33:35.094Z,92.3
2022-10-24T02:34:37.056Z,92.3
2022-10-24T02:35:40.165Z,92.3
2022-10-24T02:36:43.668Z,92.3
2022-10-24T02:37:48.330Z,92.3
2022-10-24T02:38:51.121Z,92.3
2022-10-24T02:39:54.238Z,92.4
2022-10-24T02:40:56.949Z,92.5
2022-10-24T02:42:00.163Z,92.5
2022-10-24T02:43:03.535Z,92.4
2022-10-24T02:44:06.979Z,92.4
2022-10-24T02:45:09.855Z,92.4
2022-10-24T02:46:13.076Z,92.3
2022-10-24T02:47:16.612Z,92.4
2022-10-24T02:48:19.122Z,92.4
2022-10-24T02:49:22.107Z,92.3
2022-10-24T02:50:25.198Z,92.3
2022-10-24T02:51:28.297Z,92.4
2022-10-24T02:52:31.686Z,92.4
2022-10-24T02:53:35.105Z,92.4
2022-10-24T02:54:36.771Z,92.4
2022-10-24T02:55:40.040Z,92.4
2022-10-24T02:56:42.849Z,92.3
2022-10-24T02:57:45.290Z,92.4
2022-10-24T02:58:48.003Z,92.4
2022-10-24T02:59:51.194Z,92.3
2022-10-24T03:00:53.965Z,92.3
2022-10-24T03:01:56.584Z,92.2
2022-10-24T03:02:59.763Z,92.3
2022-10-24T03:04:02.841Z,92.3
2022-10-24T03:05:05.162Z,92.2
2022-10-24T03:06:08.155Z,92.3
2022-10-24T03:07:10.971Z,92.2
2022-10-24T03:08:14.472Z,92.2
2022-10-24T03:09:18.298Z,92.3
2022-10-24T03:10:21.368Z,92.3
2022-10-24T03:11:24.205Z,92.3
2022-10-24T03:12:27.268Z,92.3
2022-10-24T03:13:30.056Z,92.2
2022-10-24T03:14:32.647Z,92.3
2022-10-24T03:15:35.626Z,92.2
2022-10-24T03:16:38.724Z,92.2
2022-10-24T03:17:41.941Z,92.2
2022-10-24T03:18:45.581Z,92.2
2022-10-24T03:19:48.384Z,92.2
2022-10-24T03:20:51.556Z,92.1
2022-10-24T03:21:54.541Z,92
2022-10-24T03:22:58.047Z,92.1
2022-10-24T03:24:01.591Z,92.1
2022-10-24T03:25:05.866Z,92.1
2022-10-24T03:26:09.202Z,92.2
2022-10-24T03:27:12.996Z,92.2
2022-10-24T03:28:15.774Z,92.1
2022-10-24T03:29:18.296Z,92.1
2022-10-24T03:30:20.733Z,92.1
2022-10-24T03:31:23.167Z,92
2022-10-24T03:32:27.355Z,92
2022-10-24T03:33:30.114Z,92.2
2022-10-24T03:34:33.059Z,92.2
2022-10-24T03:35:36.056Z,92.1
2022-10-24T03:36:38.728Z,92.2
2022-10-24T03:37:42.074Z,92.3
2022-10-24T03:38:45.170Z,92.4
2022-10-24T03:39:48.566Z,92.4
2022-10-24T03:40:52.182Z,92.3
2022-10-24T03:41:55.002Z,92.4
2022-10-24T03:42:58.106Z,92.4
2022-10-24T03:44:01.354Z,92.3
2022-10-24T03:45:03.863Z,92.3
2022-10-24T03:46:06.576Z,92.3
2022-10-24T03:47:09.369Z,92.2
2022-10-24T03:48:12.705Z,92.4
2022-10-24T03:49:15.433Z,92.3
2022-10-24T03:50:18.509Z,92.2
2022-10-24T03:51:21.314Z,92.2
2022-10-24T03:52:25.022Z,92.3
2022-10-24T03:53:28.735Z,92.3
2022-10-24T03:54:32.105Z,92.3
2022-10-24T03:55:35.225Z,92.4
2022-10-24T03:56:38.772Z,92.5
2022-10-24T03:57:41.746Z,92.5
2022-10-24T03:58:45.253Z,92.5
2022-10-24T03:59:48.407Z,92.5
2022-10-24T04:00:51.867Z,92.5
2022-10-24T04:01:54.846Z,92.5
2022-10-24T04:02:57.658Z,92.5
2022-10-24T04:04:00.815Z,92.5
2022-10-24T04:05:03.975Z,92.5
2022-10-24T04:06:07.315Z,92.6
2022-10-24T04:07:10.451Z,92.6
2022-10-24T04:08:13.044Z,92.5
2022-10-24T04:09:16.125Z,92.6
2022-10-24T04:10:19.129Z,92.6
2022-10-24T04:11:22.304Z,92.5
2022-10-24T04:12:26.050Z,92.5
2022-10-24T04:13:29.139Z,92.5
2022-10-24T04:14:32.070Z,92.6
2022-10-24T04:15:35.058Z,92.6
2022-10-24T04:16:38.427Z,92.5
2022-10-24T04:17:41.737Z,92.6
2022-10-24T04:18:45.857Z,92.5
2022-10-24T04:19:48.531Z,92.4
2022-10-24T04:20:51.070Z,92.3
2022-10-24T04:21:54.863Z,92.5
2022-10-24T04:23:05.087Z,92.5
2022-10-24T04:24:08.177Z,92.5
2022-10-24T04:25:11.231Z,92.5
2022-10-24T04:26:14.661Z,92.4
2022-10-24T04:27:17.927Z,92.4
2022-10-24T04:28:21.623Z,92.4
2022-10-24T04:29:25.128Z,92.4
2022-10-24T04:30:27.873Z,92.4
2022-10-24T04:31:30.964Z,92.3
2022-10-24T04:32:34.302Z,92.3
2022-10-24T04:33:36.896Z,92.2
2022-10-24T04:34:39.408Z,92.3
2022-10-24T04:35:41.927Z,92.3
2022-10-24T04:36:44.636Z,92.3
2022-10-24T04:37:47.153Z,92.4
2022-10-24T04:38:50.647Z,92.3
2022-10-24T04:39:53.990Z,92.3
2022-10-24T04:40:56.507Z,92.4
2022-10-24T04:41:59.402Z,92.4
2022-10-24T04:43:03.098Z,92.3
2022-10-24T04:44:07.208Z,92.3
2022-10-24T04:45:09.991Z,92.4
2022-10-24T04:46:13.071Z,92.3
2022-10-24T04:47:16.286Z,92.3
2022-10-24T04:48:19.114Z,92.3
2022-10-24T04:49:22.077Z,92.3
2022-10-24T04:50:25.072Z,92.3
2022-10-24T04:51:27.386Z,92.3
2022-10-24T04:52:30.090Z,92.3
2022-10-24T04:53:33.159Z,92.3
2022-10-24T04:54:35.883Z,92.4
2022-10-24T04:55:38.924Z,92.5
2022-10-24T04:56:41.367Z,92.6
2022-10-24T04:57:46.069Z,92.6
2022-10-24T04:58:50.667Z,92.5
2022-10-24T04:59:54.518Z,92.5
2022-10-24T05:00:57.354Z,92.7
2022-10-24T05:02:00.735Z,92.8
2022-10-24T05:03:03.737Z,92.8
2022-10-24T05:04:06.906Z,92.8
2022-10-24T05:05:09.990Z,92.8
2022-10-24T05:06:13.111Z,92.8
2022-10-24T05:07:15.816Z,92.7
2022-10-24T05:08:18.518Z,92.7
2022-10-24T05:09:21.096Z,92.7
2022-10-24T05:10:23.612Z,92.7
2022-10-24T05:11:26.321Z,92.7
2022-10-24T05:12:29.665Z,92.7
2022-10-24T05:13:37.653Z,92.7
2022-10-24T05:14:40.798Z,92.7
2022-10-24T05:15:44.823Z,92.7
2022-10-24T05:16:47.748Z,92.6
2022-10-24T05:17:50.512Z,92.5
2022-10-24T05:18:53.031Z,92.6
2022-10-24T05:19:55.613Z,92.6
2022-10-24T05:20:59.234Z,92.7
2022-10-24T05:22:04.994Z,92.6
2022-10-24T05:23:13.475Z,92.6
2022-10-24T05:24:15.989Z,92.5
2022-10-24T05:25:17.860Z,92.5
2022-10-24T05:26:20.669Z,92.4
2022-10-24T05:27:23.742Z,92.5
2022-10-24T05:28:27.016Z,92.4
2022-10-24T05:29:30.834Z,92.4
2022-10-24T05:30:34.492Z,92.4
2022-10-24T05:31:37.676Z,92.3
2022-10-24T05:32:40.817Z,92.4
2022-10-24T05:33:44.041Z,92.6
2022-10-24T05:34:47.786Z,92.7
2022-10-24T05:35:50.311Z,92.7
2022-10-24T05:36:52.905Z,92.8
2022-10-24T05:37:55.417Z,92.9
2022-10-24T05:38:57.658Z,92.8
2022-10-24T05:40:01.030Z,92.8
2022-10-24T05:41:04.374Z,92.8
2022-10-24T05:42:07.813Z,92.7
2022-10-24T05:43:10.401Z,92.7
2022-10-24T05:44:12.907Z,92.7
2022-10-24T05:45:16.709Z,92.7
2022-10-24T05:46:20.206Z,92.8
2022-10-24T05:47:29.947Z,92.9
2022-10-24T05:48:32.842Z,93
2022-10-24T05:49:35.664Z,93
2022-10-24T05:50:38.666Z,92.9
2022-10-24T05:51:42.387Z,93.1
2022-10-24T05:52:48.667Z,93.1
2022-10-24T05:53:51.460Z,93
2022-10-24T05:55:09.420Z,92.9
2022-10-24T05:56:17.644Z,92.9
2022-10-24T05:57:19.797Z,92.9
2022-10-24T05:58:22.667Z,92.9
2022-10-24T05:59:25.557Z,92.9
2022-10-24T06:00:28.529Z,92.9
2022-10-24T06:01:31.957Z,92.9
2022-10-24T06:02:36.162Z,92.8
2022-10-24T06:03:40.217Z,92.8
2022-10-24T06:04:43.866Z,92.8
2022-10-24T06:05:46.590Z,92.7
2022-10-24T06:06:49.768Z,92.6
2022-10-24T06:07:52.365Z,92.6
2022-10-24T06:08:54.615Z,92.6
2022-10-24T06:09:57.695Z,92.6
2022-10-24T06:11:00.685Z,92.6
2022-10-24T06:12:03.513Z,92.5
2022-10-24T06:13:06.582Z,92.4
2022-10-24T06:14:09.733Z,92.5
2022-10-24T06:15:12.733Z,92.4
2022-10-24T06:16:15.730Z,92.4
2022-10-24T06:17:19.195Z,92.3
2022-10-24T06:18:22.948Z,92.3
2022-10-24T06:19:25.377Z,92.3
2022-10-24T06:20:29.366Z,92.3
2022-10-24T06:21:32.111Z,92.3
2022-10-24T06:22:35.198Z,92.2
2022-10-24T06:23:38.188Z,92.2
2022-10-24T06:24:41.159Z,92.1
2022-10-24T06:25:44.353Z,92.1
2022-10-24T06:26:47.426Z,92
2022-10-24T06:27:50.565Z,92
2022-10-24T06:28:53.636Z,92.1
2022-10-24T06:29:56.892Z,92.1
2022-10-24T06:31:00.342Z,92.1
2022-10-24T06:32:03.424Z,92
2022-10-24T06:33:07.178Z,92
2022-10-24T06:34:10.342Z,92
2022-10-24T06:35:13.214Z,91.9
2022-10-24T06:36:16.366Z,91.9
2022-10-24T06:37:19.434Z,91.8
2022-10-24T06:38:22.212Z,91.9
2022-10-24T06:39:25.355Z,91.9
2022-10-24T06:40:28.951Z,91.8
2022-10-24T06:41:32.213Z,91.8
2022-10-24T06:42:35.116Z,91.8
2022-10-24T06:43:38.465Z,91.7
2022-10-24T06:44:41.608Z,91.7
2022-10-24T06:45:44.684Z,91.7
2022-10-24T06:46:48.454Z,91.7
2022-10-24T06:47:56.890Z,91.6
2022-10-24T06:49:00.869Z,91.6
2022-10-24T06:50:04.325Z,91.5
2022-10-24T06:51:07.309Z,91.5
2022-10-24T06:52:10.280Z,91.5
2022-10-24T06:53:13.887Z,91.5
2022-10-24T06:54:16.575Z,91.5
2022-10-24T06:55:19.735Z,91.5
2022-10-24T06:56:22.790Z,91.5
2022-10-24T06:57:25.301Z,91.4
2022-10-24T06:58:28.977Z,91.4
2022-10-24T06:59:31.907Z,91.2
2022-10-24T07:00:34.758Z,91.2
2022-10-24T07:01:37.825Z,91.2
2022-10-24T07:02:40.595Z,91.2
2022-10-24T07:03:44.091Z,91.2
2022-10-24T07:04:47.652Z,91.2
2022-10-24T07:05:51.412Z,91.1
2022-10-24T07:06:54.784Z,91
2022-10-24T07:07:57.230Z,90.9
2022-10-24T07:09:00.407Z,90.9
2022-10-24T07:10:03.556Z,90.9
2022-10-24T07:11:06.549Z,90.9
2022-10-24T07:12:09.998Z,90.8
2022-10-24T07:13:13.237Z,90.8
2022-10-24T07:14:16.316Z,90.8
2022-10-24T07:15:19.683Z,90.7
2022-10-24T07:16:22.680Z,90.7
2022-10-24T07:17:26.126Z,90.6
2022-10-24T07:18:29.120Z,90.6
2022-10-24T07:19:38.369Z,90.5
2022-10-24T07:20:42.175Z,90.5
2022-10-24T07:21:45.871Z,90.5
2022-10-24T07:22:49.644Z,90.4
2022-10-24T07:23:52.452Z,90.2
2022-10-24T07:24:55.253Z,90.1
2022-10-24T07:25:58.087Z,90.1
2022-10-24T07:27:01.247Z,90
2022-10-24T07:28:04.665Z,89.8
2022-10-24T07:29:07.940Z,89.6
2022-10-24T07:30:11.733Z,89.5
2022-10-24T07:31:15.165Z,89.3
2022-10-24T07:32:18.428Z,89.2
2022-10-24T07:33:21.209Z,89.1
2022-10-24T07:34:24.059Z,89.1
2022-10-24T07:35:27.147Z,89
2022-10-24T07:36:30.921Z,88.8
2022-10-24T07:37:34.744Z,88.6
2022-10-24T07:38:37.945Z,88.5
2022-10-24T07:39:41.972Z,88.3
2022-10-24T07:40:45.116Z,88.1
2022-10-24T07:41:48.570Z,88.1
2022-10-24T07:42:51.836Z,88
2022-10-24T07:43:55.561Z,87.9
2022-10-24T07:44:58.648Z,87.9
2022-10-24T07:47:05.036Z,87.7
2022-10-24T07:48:07.370Z,87.5
2022-10-24T07:49:10.822Z,87.5
2022-10-24T07:50:13.785Z,87.4
2022-10-24T07:51:16.897Z,87.2
2022-10-24T07:52:19.833Z,87.1
2022-10-24T07:53:23.574Z,86.9
2022-10-24T07:54:26.936Z,86.7
2022-10-24T07:55:32.395Z,86.6
2022-10-24T07:56:35.504Z,86.4
2022-10-24T07:57:38.779Z,86.2
2022-10-24T07:58:41.683Z,85.9
2022-10-24T07:59:44.461Z,85.8
2022-10-24T08:00:47.949Z,85.8
2022-10-24T08:01:50.421Z,85.8
2022-10-24T08:02:53.293Z,85.7
2022-10-24T08:03:56.017Z,85.2
2022-10-24T08:04:59.168Z,85
2022-10-24T08:06:03.169Z,84.6
2022-10-24T08:07:05.988Z,84.5
2022-10-24T08:08:40.690Z,84.2
2022-10-24T08:09:45.242Z,83.8
2022-10-24T08:10:49.158Z,83.7
2022-10-24T08:11:52.531Z,83.6
2022-10-24T08:12:55.622Z,83.5
2022-10-24T08:13:58.763Z,83.1
2022-10-24T08:15:03.652Z,82.8
2022-10-24T08:16:07.099Z,82.7
2022-10-24T08:17:09.684Z,82.2
2022-10-24T08:18:12.390Z,82
2022-10-24T08:19:15.867Z,82.1
2022-10-24T08:20:18.996Z,82
2022-10-24T08:21:21.781Z,81.8
2022-10-24T08:22:24.803Z,81.5
2022-10-24T08:23:28.252Z,81.3
2022-10-24T08:24:31.355Z,81
2022-10-24T08:25:35.472Z,81
2022-10-24T08:26:39.575Z,80.9
2022-10-24T08:28:45.480Z,80.7
2022-10-24T08:29:48.285Z,80.4
2022-10-24T08:30:51.075Z,80.4
2022-10-24T08:31:54.063Z,80.1
2022-10-24T08:32:56.851Z,80.4
2022-10-24T08:34:00.269Z,80.4
2022-10-24T08:35:03.731Z,80.5
2022-10-24T08:36:06.166Z,80.5
2022-10-24T08:37:09.901Z,80.2
2022-10-24T08:38:12.814Z,80.2
2022-10-24T08:39:16.466Z,80.2
2022-10-24T08:40:19.604Z,80.3
2022-10-24T08:41:23.368Z,80.2
2022-10-24T08:42:26.579Z,80.3
2022-10-24T08:43:29.031Z,80
2022-10-24T08:44:31.625Z,80.1
2022-10-24T08:45:34.725Z,80.1
2022-10-24T08:46:37.588Z,80.1
2022-10-24T08:47:41.751Z,80.3
2022-10-24T08:48:44.818Z,80.2
2022-10-24T08:49:51.815Z,80
2022-10-24T08:50:55.215Z,80
2022-10-24T08:51:58.366Z,79.5
2022-10-24T08:53:01.846Z,79.2
2022-10-24T08:54:04.374Z,78.8
2022-10-24T08:55:25.598Z,78.4
2022-10-24T08:56:53.310Z,77.7
2022-10-24T08:57:57.054Z,77.8
2022-10-24T08:59:00.429Z,77.3
2022-10-24T09:00:03.319Z,76.9
2022-10-24T09:01:06.843Z,76.8
2022-10-24T09:02:15.260Z,76.3
2022-10-24T09:03:57.423Z,76.2
2022-10-24T09:05:01.267Z,75.8
2022-10-24T09:06:04.331Z,75.7
2022-10-24T09:07:07.319Z,75.5
2022-10-24T09:08:10.408Z,75.4
2022-10-24T09:09:13.687Z,75.3
2022-10-24T09:10:17.143Z,75.6
2022-10-24T09:11:20.859Z,75.4
2022-10-24T09:12:24.385Z,75
2022-10-24T09:13:27.632Z,74.8
2022-10-24T09:14:30.730Z,74.9
2022-10-24T09:15:34.536Z,74.4
2022-10-24T09:16:37.770Z,74
2022-10-24T09:17:41.098Z,74
2022-10-24T09:18:44.420Z,74.1
2022-10-24T09:19:48.120Z,74.1
2022-10-24T09:20:52.455Z,73.5
2022-10-24T09:21:55.830Z,73.6
2022-10-24T09:22:58.541Z,72.6
2022-10-24T09:24:01.650Z,72.7
2022-10-24T09:25:05.419Z,72.3
2022-10-24T09:26:08.895Z,71.8
2022-10-24T09:27:11.982Z,71.7
2022-10-24T09:28:15.763Z,72.1
2022-10-24T09:29:18.951Z,72
2022-10-24T09:30:22.019Z,71.1
2022-10-24T09:31:24.557Z,71.1
2022-10-24T09:32:27.834Z,70.8
2022-10-24T09:33:31.200Z,70.6
2022-10-24T09:34:34.060Z,70.5
2022-10-24T09:35:37.779Z,71.1
2022-10-24T09:36:40.567Z,70.8
2022-10-24T09:37:48.770Z,71.5
2022-10-24T09:38:52.432Z,70.4
2022-10-24T09:39:55.537Z,70.7
2022-10-24T09:40:59.238Z,70.9
2022-10-24T09:42:03.088Z,70.9
2022-10-24T09:43:06.077Z,70.6
2022-10-24T09:44:09.524Z,70.6
2022-10-24T09:45:13.243Z,70.8
2022-10-24T09:46:16.314Z,70.5
2022-10-24T09:48:30.951Z,70.5
2022-10-24T09:49:34.307Z,70.6
2022-10-24T09:50:37.964Z,70.9
2022-10-24T09:51:41.401Z,70.6
2022-10-24T09:52:44.629Z,70.4
2022-10-24T09:53:47.706Z,70.6
2022-10-24T09:54:50.903Z,70.5
2022-10-24T09:55:54.712Z,70.7
2022-10-24T09:56:57.725Z,70
2022-10-24T09:58:01.208Z,70
2022-10-24T09:59:05.212Z,69.8
2022-10-24T10:00:08.737Z,69.7
2022-10-24T10:01:13.117Z,69.7
2022-10-24T10:02:17.252Z,69.1
2022-10-24T10:03:25.393Z,68.7
2022-10-24T10:04:28.102Z,68.5
2022-10-24T10:05:31.548Z,68.1
2022-10-24T10:06:35.001Z,68.5
2022-10-24T10:07:37.512Z,68.3
2022-10-24T10:08:40.581Z,67.9
2022-10-24T10:09:44.571Z,67.5
2022-10-24T10:10:47.638Z,67.3
2022-10-24T10:12:04.411Z,67.7
2022-10-24T10:13:07.877Z,66.7
2022-10-24T10:14:10.750Z,66.5
2022-10-24T10:15:14.281Z,66.4
2022-10-24T10:16:17.642Z,66.1
2022-10-24T10:17:20.812Z,66.3
2022-10-24T10:18:24.003Z,65.9
2022-10-24T10:19:27.075Z,65.9
2022-10-24T10:20:29.747Z,65.6
2022-10-24T10:21:32.183Z,65.8
2022-10-24T10:22:35.059Z,65.3
2022-10-24T10:23:38.406Z,65.6
2022-10-24T10:24:41.847Z,65
2022-10-24T10:25:44.643Z,63.6
2022-10-24T10:26:46.892Z,63.9
2022-10-24T10:27:49.980Z,63
2022-10-24T10:28:53.631Z,63.5
2022-10-24T10:29:56.161Z,63.7
2022-10-24T10:31:00.306Z,63.7
2022-10-24T10:32:03.404Z,64
2022-10-24T10:33:06.560Z,64.4
2022-10-24T10:34:09.910Z,63.9
2022-10-24T10:35:12.903Z,63.9
2022-10-24T10:36:15.583Z,64
2022-10-24T10:37:19.239Z,63.8
2022-10-24T10:38:22.385Z,63.8
2022-10-24T10:39:25.838Z,63.8
2022-10-24T10:40:28.475Z,63.8
2022-10-24T10:41:31.704Z,63.6
2022-10-24T10:42:34.856Z,64
2022-10-24T10:43:38.589Z,63.8
2022-10-24T10:44:42.034Z,62.8
2022-10-24T10:45:44.470Z,62.5
2022-10-24T10:46:48.625Z,62.7
2022-10-24T10:47:51.538Z,62.6
2022-10-24T10:48:53.586Z,62.7
2022-10-24T10:49:56.005Z,62.4
2022-10-24T10:50:58.990Z,61.9
2022-10-24T10:52:07.651Z,61.6
2022-10-24T10:53:10.448Z,61.9
2022-10-24T10:54:13.901Z,60.9
2022-10-24T10:55:16.190Z,61.4
2022-10-24T10:56:19.607Z,61.1
2022-10-24T10:57:28.852Z,61
2022-10-24T10:58:32.241Z,60.7
2022-10-24T10:59:35.814Z,59.1
2022-10-24T11:00:39.477Z,59.2
2022-10-24T11:01:43.238Z,59
2022-10-24T11:02:54.913Z,59
2022-10-24T11:03:59.051Z,58.8
2022-10-24T11:05:03.055Z,58
2022-10-24T11:06:06.050Z,58
2022-10-24T11:07:09.274Z,57.8
2022-10-24T11:08:19.479Z,57.8
2022-10-24T11:09:22.912Z,57.8
2022-10-24T11:10:25.425Z,58
2022-10-24T11:11:28.495Z,57.9
2022-10-24T11:12:31.549Z,57.3
2022-10-24T11:13:35.507Z,57.9
2022-10-24T11:14:38.759Z,58
2022-10-24T11:15:42.143Z,57.2
2022-10-24T11:16:45.206Z,57.4
2022-10-24T11:17:49.623Z,56.8
2022-10-24T11:18:53.730Z,57.1
2022-10-24T11:19:56.894Z,56.3
2022-10-24T11:20:59.713Z,55
2022-10-24T11:22:02.774Z,55.8
2022-10-24T11:23:05.655Z,55.2
2022-10-24T11:24:14.852Z,55.3
2022-10-24T11:25:18.312Z,54.6
2022-10-24T11:26:21.699Z,53.7
2022-10-24T11:27:24.691Z,54.1
2022-10-24T11:28:27.875Z,54.3
2022-10-24T11:29:31.037Z,54.2
2022-10-24T11:30:34.224Z,54.2
2022-10-24T11:31:45.374Z,54.4
2022-10-24T11:32:49.248Z,54
2022-10-24T11:33:52.982Z,54
2022-10-24T11:34:56.704Z,54.6
2022-10-24T11:36:00.370Z,53.9
2022-10-24T11:37:03.434Z,54.5
2022-10-24T11:38:06.703Z,54.1
2022-10-24T11:39:09.953Z,54.2
2022-10-24T11:40:14.485Z,53.9
2022-10-24T11:41:18.805Z,53.5
2022-10-24T11:42:22.186Z,53.6
2022-10-24T11:43:25.883Z,53.5
2022-10-24T11:44:28.777Z,54
2022-10-24T11:45:32.398Z,53.5
2022-10-24T11:46:35.323Z,53.6
2022-10-24T11:47:38.232Z,53.3
2022-10-24T11:48:41.351Z,53.6
2022-10-24T11:49:44.075Z,53.3
2022-10-24T11:50:47.445Z,53.3
2022-10-24T11:51:51.230Z,53.3
2022-10-24T11:52:54.331Z,53.9
2022-10-24T11:53:57.130Z,54
2022-10-24T11:55:00.559Z,54.2
2022-10-24T11:56:04.260Z,54.4
2022-10-24T11:57:07.648Z,54.1
2022-10-24T11:58:10.728Z,54.5
2022-10-24T11:59:13.814Z,55.2
2022-10-24T12:00:17.541Z,53.1
2022-10-24T12:01:20.253Z,53.8
2022-10-24T12:02:23.537Z,53.7
2022-10-24T12:03:27.312Z,53.4
2022-10-24T12:04:31.016Z,53.6
2022-10-24T12:05:34.323Z,52.8
2022-10-24T12:06:37.968Z,53.1
2022-10-24T12:07:40.623Z,52.9
2022-10-24T12:08:44.051Z,53
2022-10-24T12:09:47.433Z,52.9
2022-10-24T12:10:51.624Z,52.9
2022-10-24T12:11:54.861Z,53.2
2022-10-24T12:12:58.349Z,53.1
2022-10-24T12:15:05.406Z,53.4
2022-10-24T12:16:08.121Z,54.1
2022-10-24T12:17:10.987Z,54.7
2022-10-24T12:18:15.009Z,53.9
2022-10-24T12:19:18.375Z,53.9
2022-10-24T12:20:21.782Z,55.1
2022-10-24T12:21:27.182Z,55.5
2022-10-24T12:22:31.148Z,55.8
2022-10-24T12:23:34.620Z,56.3
2022-10-24T12:24:38.075Z,56.5
2022-10-24T12:25:48.480Z,56.9
2022-10-24T12:26:51.762Z,57.1
2022-10-24T12:27:54.364Z,57.8
2022-10-24T12:28:57.188Z,57.4
2022-10-24T12:30:00.634Z,58.2
2022-10-24T12:31:03.430Z,58.2
2022-10-24T12:32:06.233Z,57.6
2022-10-24T12:33:09.306Z,57.9
2022-10-24T12:34:13.030Z,57.7
2022-10-24T12:35:32.207Z,57.7
2022-10-24T12:36:35.558Z,57.8
2022-10-24T12:37:46.961Z,57.5
2022-10-24T12:38:50.059Z,57.4
2022-10-24T12:39:59.721Z,57.6
2022-10-24T12:41:02.515Z,57.4
2022-10-24T12:42:05.229Z,57.6
2022-10-24T12:43:08.331Z,57.3
2022-10-24T12:44:11.123Z,57.4
2022-10-24T12:45:14.491Z,57.5
2022-10-24T12:46:24.357Z,57.3
2022-10-24T12:47:27.788Z,58
2022-10-24T12:48:30.952Z,57.6
2022-10-24T12:49:33.666Z,57.9
2022-10-24T12:50:36.909Z,58.4
2022-10-24T12:51:39.485Z,58.7
2022-10-24T12:52:44.451Z,58.9
2022-10-24T12:53:48.632Z,58.8
2022-10-24T12:54:52.100Z,59.2
2022-10-24T12:55:54.955Z,59.3
2022-10-24T12:56:57.666Z,59
2022-10-24T12:58:00.731Z,59.4
2022-10-24T12:59:03.434Z,59.3
2022-10-24T13:00:06.502Z,59.4
2022-10-24T13:01:10.485Z,59.5
2022-10-24T13:02:14.686Z,59.6
2022-10-24T13:03:18.359Z,59.7
2022-10-24T13:04:21.427Z,59.8
2022-10-24T13:05:24.510Z,59.5
2022-10-24T13:06:28.048Z,59.1
2022-10-24T13:07:31.134Z,58.7
2022-10-24T13:08:35.186Z,58.8
2022-10-24T13:09:37.742Z,58.6
2022-10-24T13:10:40.837Z,58.5
2022-10-24T13:11:43.636Z,58.6
2022-10-24T13:12:47.721Z,58.6
2022-10-24T13:13:56.092Z,58.6
2022-10-24T13:14:59.463Z,58.7
2022-10-24T13:16:02.340Z,58.7
2022-10-24T13:17:05.427Z,59
2022-10-24T13:18:08.963Z,58.9
2022-10-24T13:19:12.588Z,59.4
2022-10-24T13:20:15.107Z,59.6
2022-10-24T13:21:18.207Z,60.1
2022-10-24T13:22:21.867Z,60
2022-10-24T13:23:24.990Z,60.2
2022-10-24T13:24:28.508Z,59.7
2022-10-24T13:25:31.874Z,61.2
2022-10-24T13:26:34.676Z,60.2
2022-10-24T13:27:38.102Z,60.4
2022-10-24T13:28:41.165Z,60
2022-10-24T13:29:44.109Z,60.2
2022-10-24T13:30:51.287Z,59.6
2022-10-24T13:31:54.176Z,59.7
2022-10-24T13:32:57.517Z,59.8
2022-10-24T13:34:00.506Z,60
2022-10-24T13:35:04.119Z,59
2022-10-24T13:36:06.978Z,58.5
2022-10-24T13:37:10.068Z,58.7
2022-10-24T13:38:14.040Z,59
2022-10-24T13:39:17.268Z,59.3
2022-10-24T13:40:20.712Z,59.8
2022-10-24T13:41:23.889Z,59.7
2022-10-24T13:42:27.335Z,59.8
2022-10-24T13:43:30.204Z,60.2
2022-10-24T13:44:32.795Z,60.4
2022-10-24T13:45:35.793Z,60.1
2022-10-24T13:47:41.663Z,60.8
2022-10-24T13:48:45.436Z,60.6
2022-10-24T13:49:48.691Z,60.7
2022-10-24T13:50:51.512Z,60.4
2022-10-24T13:51:54.589Z,60.7
2022-10-24T13:52:58.236Z,61.1
2022-10-24T13:54:01.708Z,61.1
2022-10-24T13:55:05.114Z,61.5
2022-10-24T13:56:08.444Z,61.3
2022-10-24T13:57:10.797Z,61.3
2022-10-24T13:58:13.923Z,61.2
2022-10-24T13:59:17.096Z,61.3
2022-10-24T14:00:20.242Z,60.9
2022-10-24T14:01:23.861Z,60.9
2022-10-24T14:02:33.418Z,61.2
2022-10-24T14:03:43.929Z,60.9
2022-10-24T14:04:46.995Z,60.8
2022-10-24T14:05:50.074Z,61.1
2022-10-24T14:06:52.790Z,60.9
2022-10-24T14:07:55.856Z,60.9
2022-10-24T14:09:08.220Z,61.2
2022-10-24T14:10:12.278Z,61.1
2022-10-24T14:11:23.858Z,61
2022-10-24T14:12:26.107Z,61.3
2022-10-24T14:13:29.116Z,61.6
2022-10-24T14:14:32.940Z,61.3
2022-10-24T14:15:36.341Z,61.5
2022-10-24T14:16:39.063Z,61.5
2022-10-24T14:17:42.437Z,61.7